sensor_id;sensor_type;location;lat;lon;timestamp;pressure;altitude;pressure_sealevel;temperature;humidity
1472;BME280;963;42.644;23.336;2023-03-13T00:01:33;94409.00;;;4.69;46.17
1472;BME280;963;42.644;23.336;2023-03-13T00:03:59;94405.94;;;4.67;46.04
1472;BME280;963;42.644;23.336;2023-03-13T00:06:26;94417.75;;;4.65;46.18
1472;BME280;963;42.644;23.336;2023-03-13T00:08:53;94407.78;;;4.67;45.78
1472;BME280;963;42.644;23.336;2023-03-13T00:11:19;94402.41;;;4.63;46.18
1472;BME280;963;42.644;23.336;2023-03-13T00:13:44;94411.00;;;4.64;45.97
1472;BME280;963;42.644;23.336;2023-03-13T00:16:12;94408.22;;;4.69;46.04
1472;BME280;963;42.644;23.336;2023-03-13T00:18:38;94408.22;;;4.69;46.12
1472;BME280;963;42.644;23.336;2023-03-13T00:21:07;94414.72;;;4.54;46.08
1472;BME280;963;42.644;23.336;2023-03-13T00:23:34;94412.38;;;4.61;46.19
1472;BME280;963;42.644;23.336;2023-03-13T00:26:05;94428.63;;;4.58;46.26
1472;BME280;963;42.644;23.336;2023-03-13T00:28:32;94404.28;;;4.54;46.10
1472;BME280;963;42.644;23.336;2023-03-13T00:31:09;94416.97;;;4.64;46.13
1472;BME280;963;42.644;23.336;2023-03-13T00:33:44;94421.72;;;4.62;46.10
1472;BME280;963;42.644;23.336;2023-03-13T00:36:15;94434.44;;;4.64;46.10
1472;BME280;963;42.644;23.336;2023-03-13T00:38:41;94434.63;;;4.59;46.04
1472;BME280;963;42.644;23.336;2023-03-13T00:41:12;94415.91;;;4.65;46.08
1472;BME280;963;42.644;23.336;2023-03-13T00:43:40;94424.19;;;4.59;46.15
1472;BME280;963;42.644;23.336;2023-03-13T00:46:06;94426.50;;;4.60;46.35
1472;BME280;963;42.644;23.336;2023-03-13T00:48:32;94426.34;;;4.57;46.05
1472;BME280;963;42.644;23.336;2023-03-13T00:50:58;94426.53;;;4.52;46.13
1472;BME280;963;42.644;23.336;2023-03-13T00:53:24;94413.19;;;4.53;46.32
1472;BME280;963;42.644;23.336;2023-03-13T00:56:00;94405.69;;;4.43;46.04
1472;BME280;963;42.644;23.336;2023-03-13T00:58:28;94401.25;;;4.44;46.11
1472;BME280;963;42.644;23.336;2023-03-13T01:00:54;94435.72;;;4.40;46.44
1472;BME280;963;42.644;23.336;2023-03-13T01:03:22;94399.72;;;4.43;45.95
1472;BME280;963;42.644;23.336;2023-03-13T01:05:58;94427.91;;;4.49;46.01
1472;BME280;963;42.644;23.336;2023-03-13T01:08:25;94429.13;;;4.43;46.23
1472;BME280;963;42.644;23.336;2023-03-13T01:10:57;94426.38;;;4.39;46.20
1472;BME280;963;42.644;23.336;2023-03-13T01:13:22;94409.38;;;4.42;46.22
1472;BME280;963;42.644;23.336;2023-03-13T01:15:48;94434.22;;;4.31;46.41
1472;BME280;963;42.644;23.336;2023-03-13T01:18:13;94416.44;;;4.33;47.12
1472;BME280;963;42.644;23.336;2023-03-13T01:20:40;94414.16;;;4.23;47.73
1472;BME280;963;42.644;23.336;2023-03-13T01:23:05;94419.25;;;4.11;48.08
1472;BME280;963;42.644;23.336;2023-03-13T01:25:31;94415.41;;;4.08;48.23
1472;BME280;963;42.644;23.336;2023-03-13T01:27:59;94411.56;;;4.05;47.72
1472;BME280;963;42.644;23.336;2023-03-13T01:30:25;94425.38;;;4.15;47.91
1472;BME280;963;42.644;23.336;2023-03-13T01:32:50;94439.75;;;4.21;47.80
1472;BME280;963;42.644;23.336;2023-03-13T01:35:15;94444.19;;;4.12;48.56
1472;BME280;963;42.644;23.336;2023-03-13T01:37:42;94433.91;;;4.06;48.55
1472;BME280;963;42.644;23.336;2023-03-13T01:40:08;94427.50;;;4.13;48.29
1472;BME280;963;42.644;23.336;2023-03-13T01:42:48;94436.09;;;4.13;48.04
1472;BME280;963;42.644;23.336;2023-03-13T01:48:17;94465.63;;;3.83;49.67
1472;BME280;963;42.644;23.336;2023-03-13T01:50:43;94428.75;;;3.72;50.14
1472;BME280;963;42.644;23.336;2023-03-13T01:53:09;94439.47;;;3.79;49.94
1472;BME280;963;42.644;23.336;2023-03-13T01:55:34;94446.66;;;3.73;49.94
1472;BME280;963;42.644;23.336;2023-03-13T01:58:00;94448.31;;;3.69;50.23
1472;BME280;963;42.644;23.336;2023-03-13T02:00:29;94433.31;;;3.66;49.84
1472;BME280;963;42.644;23.336;2023-03-13T02:02:57;94440.03;;;3.67;50.23
1472;BME280;963;42.644;23.336;2023-03-13T02:05:28;94437.75;;;3.66;50.17
1472;BME280;963;42.644;23.336;2023-03-13T02:10:28;94447.22;;;3.70;50.79
1472;BME280;963;42.644;23.336;2023-03-13T02:12:54;94449.81;;;3.53;50.73
1472;BME280;963;42.644;23.336;2023-03-13T02:15:22;94434.38;;;3.39;50.88
1472;BME280;963;42.644;23.336;2023-03-13T02:17:49;94462.00;;;3.27;51.24
1472;BME280;963;42.644;23.336;2023-03-13T02:20:17;94462.75;;;3.19;51.44
1472;BME280;963;42.644;23.336;2023-03-13T02:25:47;94458.38;;;3.36;50.35
1472;BME280;963;42.644;23.336;2023-03-13T02:28:19;94469.22;;;3.38;51.06
1472;BME280;963;42.644;23.336;2023-03-13T02:30:47;94460.81;;;3.41;51.09
1472;BME280;963;42.644;23.336;2023-03-13T02:33:14;94467.56;;;3.42;51.10
1472;BME280;963;42.644;23.336;2023-03-13T02:35:42;94469.66;;;3.32;50.95
1472;BME280;963;42.644;23.336;2023-03-13T02:38:10;94479.75;;;3.33;51.04
1472;BME280;963;42.644;23.336;2023-03-13T02:40:41;94481.00;;;3.36;50.88
1472;BME280;963;42.644;23.336;2023-03-13T02:43:11;94489.56;;;3.36;51.40
1472;BME280;963;42.644;23.336;2023-03-13T02:45:38;94488.50;;;3.37;51.44
1472;BME280;963;42.644;23.336;2023-03-13T02:48:04;94489.28;;;2.98;51.45
1472;BME280;963;42.644;23.336;2023-03-13T02:50:29;94498.97;;;3.15;51.57
1472;BME280;963;42.644;23.336;2023-03-13T02:53:02;94501.88;;;3.22;51.86
1472;BME280;963;42.644;23.336;2023-03-13T02:55:39;94507.88;;;3.31;51.93
1472;BME280;963;42.644;23.336;2023-03-13T02:58:05;94515.34;;;3.24;52.10
1472;BME280;963;42.644;23.336;2023-03-13T03:00:31;94515.03;;;3.26;52.36
1472;BME280;963;42.644;23.336;2023-03-13T03:02:56;94496.38;;;3.24;52.49
1472;BME280;963;42.644;23.336;2023-03-13T03:05:22;94500.81;;;3.23;52.32
1472;BME280;963;42.644;23.336;2023-03-13T03:07:48;94504.31;;;3.19;51.76
1472;BME280;963;42.644;23.336;2023-03-13T03:10:15;94510.28;;;3.19;51.74
1472;BME280;963;42.644;23.336;2023-03-13T03:12:41;94498.97;;;3.15;51.68
1472;BME280;963;42.644;23.336;2023-03-13T03:15:07;94507.19;;;3.08;51.59
1472;BME280;963;42.644;23.336;2023-03-13T03:17:32;94498.53;;;2.91;51.69
1472;BME280;963;42.644;23.336;2023-03-13T03:19:58;94514.97;;;3.00;51.86
1472;BME280;963;42.644;23.336;2023-03-13T03:22:23;94520.78;;;3.05;52.08
1472;BME280;963;42.644;23.336;2023-03-13T03:24:49;94528.75;;;3.09;51.99
1472;BME280;963;42.644;23.336;2023-03-13T03:27:14;94528.63;;;3.14;52.04
1472;BME280;963;42.644;23.336;2023-03-13T03:29:39;94543.44;;;3.13;52.67
1472;BME280;963;42.644;23.336;2023-03-13T03:32:05;94540.88;;;3.22;52.85
1472;BME280;963;42.644;23.336;2023-03-13T03:34:31;94548.06;;;3.25;52.83
1472;BME280;963;42.644;23.336;2023-03-13T03:36:56;94543.16;;;3.24;53.10
1472;BME280;963;42.644;23.336;2023-03-13T03:39:22;94551.28;;;3.31;53.40
1472;BME280;963;42.644;23.336;2023-03-13T03:41:47;94577.19;;;3.36;53.61
1472;BME280;963;42.644;23.336;2023-03-13T03:44:13;94549.81;;;3.38;54.08
1472;BME280;963;42.644;23.336;2023-03-13T03:46:38;94556.56;;;3.39;53.95
1472;BME280;963;42.644;23.336;2023-03-13T03:49:04;94568.78;;;3.39;54.10
1472;BME280;963;42.644;23.336;2023-03-13T03:51:29;94570.00;;;3.41;54.39
1472;BME280;963;42.644;23.336;2023-03-13T03:53:54;94572.31;;;3.43;54.50
1472;BME280;963;42.644;23.336;2023-03-13T03:56:20;94579.19;;;3.39;54.84
1472;BME280;963;42.644;23.336;2023-03-13T03:58:45;94571.31;;;3.30;54.65
1472;BME280;963;42.644;23.336;2023-03-13T04:01:11;94567.03;;;3.26;55.58
1472;BME280;963;42.644;23.336;2023-03-13T04:03:36;94598.97;;;3.26;55.41
1472;BME280;963;42.644;23.336;2023-03-13T04:06:01;94599.56;;;3.23;55.66
1472;BME280;963;42.644;23.336;2023-03-13T04:08:27;94589.16;;;3.14;56.34
1472;BME280;963;42.644;23.336;2023-03-13T04:10:52;94590.63;;;3.07;56.33
1472;BME280;963;42.644;23.336;2023-03-13T04:13:18;94608.00;;;2.98;57.11
1472;BME280;963;42.644;23.336;2023-03-13T04:15:43;94623.66;;;3.06;56.76
1472;BME280;963;42.644;23.336;2023-03-13T04:18:09;94615.69;;;3.03;56.88
1472;BME280;963;42.644;23.336;2023-03-13T04:20:35;94617.44;;;2.94;56.83
1472;BME280;963;42.644;23.336;2023-03-13T04:23:00;94623.16;;;2.82;57.00
1472;BME280;963;42.644;23.336;2023-03-13T04:25:26;94617.09;;;2.87;57.12
1472;BME280;963;42.644;23.336;2023-03-13T04:27:51;94618.63;;;2.88;57.33
1472;BME280;963;42.644;23.336;2023-03-13T04:30:17;94622.47;;;2.90;56.40
1472;BME280;963;42.644;23.336;2023-03-13T04:32:42;94622.28;;;2.87;56.47
1472;BME280;963;42.644;23.336;2023-03-13T04:35:08;94636.56;;;2.75;56.32
1472;BME280;963;42.644;23.336;2023-03-13T04:37:33;94638.88;;;2.77;56.32
1472;BME280;963;42.644;23.336;2023-03-13T04:39:59;94630.50;;;2.80;56.31
1472;BME280;963;42.644;23.336;2023-03-13T04:42:26;94651.63;;;2.87;56.47
1472;BME280;963;42.644;23.336;2023-03-13T04:44:51;94644.00;;;2.91;56.61
1472;BME280;963;42.644;23.336;2023-03-13T04:47:16;94627.72;;;2.76;56.93
1472;BME280;963;42.644;23.336;2023-03-13T04:49:42;94653.22;;;2.97;56.84
1472;BME280;963;42.644;23.336;2023-03-13T04:52:07;94652.66;;;3.00;56.90
1472;BME280;963;42.644;23.336;2023-03-13T04:54:33;94648.72;;;2.89;56.52
1472;BME280;963;42.644;23.336;2023-03-13T04:56:58;94658.53;;;2.92;56.53
1472;BME280;963;42.644;23.336;2023-03-13T04:59:24;94644.06;;;2.77;56.94
1472;BME280;963;42.644;23.336;2023-03-13T05:01:49;94654.28;;;2.73;58.21
1472;BME280;963;42.644;23.336;2023-03-13T05:04:14;94652.94;;;2.76;57.31
1472;BME280;963;42.644;23.336;2023-03-13T05:06:40;94657.00;;;2.68;57.09
1472;BME280;963;42.644;23.336;2023-03-13T05:09:05;94667.75;;;2.75;57.55
1472;BME280;963;42.644;23.336;2023-03-13T05:11:31;94656.94;;;2.82;57.03
1472;BME280;963;42.644;23.336;2023-03-13T05:13:56;94657.66;;;2.74;56.29
1472;BME280;963;42.644;23.336;2023-03-13T05:16:22;94654.88;;;2.70;56.90
1472;BME280;963;42.644;23.336;2023-03-13T05:18:47;94665.78;;;2.81;56.89
1472;BME280;963;42.644;23.336;2023-03-13T05:21:12;94662.31;;;2.86;57.26
1472;BME280;963;42.644;23.336;2023-03-13T05:23:38;94659.84;;;2.80;57.42
1472;BME280;963;42.644;23.336;2023-03-13T05:26:04;94667.03;;;2.83;57.42
1472;BME280;963;42.644;23.336;2023-03-13T05:28:29;94690.66;;;2.96;57.13
1472;BME280;963;42.644;23.336;2023-03-13T05:30:55;94688.91;;;3.05;57.28
1472;BME280;963;42.644;23.336;2023-03-13T05:33:20;94682.28;;;2.99;57.22
1472;BME280;963;42.644;23.336;2023-03-13T05:35:46;94686.16;;;2.88;57.14
1472;BME280;963;42.644;23.336;2023-03-13T05:38:12;94682.91;;;2.82;57.08
1472;BME280;963;42.644;23.336;2023-03-13T05:40:38;94687.75;;;2.97;57.30
1472;BME280;963;42.644;23.336;2023-03-13T05:43:04;94688.44;;;3.03;56.57
1472;BME280;963;42.644;23.336;2023-03-13T05:45:29;94689.38;;;3.07;56.37
1472;BME280;963;42.644;23.336;2023-03-13T05:47:54;94683.13;;;3.08;56.39
1472;BME280;963;42.644;23.336;2023-03-13T05:50:20;94688.78;;;3.10;56.66
1472;BME280;963;42.644;23.336;2023-03-13T05:52:46;94702.94;;;3.26;56.15
1472;BME280;963;42.644;23.336;2023-03-13T05:55:11;94696.00;;;3.35;56.14
1472;BME280;963;42.644;23.336;2023-03-13T05:57:37;94701.19;;;3.35;55.97
1472;BME280;963;42.644;23.336;2023-03-13T06:00:04;94706.78;;;3.29;56.33
1472;BME280;963;42.644;23.336;2023-03-13T06:02:29;94711.00;;;3.38;55.91
1472;BME280;963;42.644;23.336;2023-03-13T06:04:54;94709.69;;;3.50;55.94
1472;BME280;963;42.644;23.336;2023-03-13T06:07:20;94707.75;;;3.64;55.15
1472;BME280;963;42.644;23.336;2023-03-13T06:09:45;94707.34;;;3.70;54.38
1472;BME280;963;42.644;23.336;2023-03-13T06:12:11;94714.28;;;3.75;54.24
1472;BME280;963;42.644;23.336;2023-03-13T06:14:36;94712.94;;;3.86;54.02
1472;BME280;963;42.644;23.336;2023-03-13T06:17:03;94709.72;;;3.89;53.34
1472;BME280;963;42.644;23.336;2023-03-13T06:19:29;94722.94;;;4.01;53.02
1472;BME280;963;42.644;23.336;2023-03-13T06:21:54;94713.44;;;3.66;53.74
1472;BME280;963;42.644;23.336;2023-03-13T06:24:20;94737.28;;;3.90;53.63
1472;BME280;963;42.644;23.336;2023-03-13T06:26:48;94712.38;;;3.98;53.06
1472;BME280;963;42.644;23.336;2023-03-13T06:29:14;94722.94;;;4.01;52.52
1472;BME280;963;42.644;23.336;2023-03-13T06:31:40;94725.75;;;3.52;53.70
1472;BME280;963;42.644;23.336;2023-03-13T06:34:07;94724.00;;;3.69;52.61
1472;BME280;963;42.644;23.336;2023-03-13T06:36:33;94709.44;;;3.60;53.20
1472;BME280;963;42.644;23.336;2023-03-13T06:38:58;94707.94;;;3.98;52.61
1472;BME280;963;42.644;23.336;2023-03-13T06:41:24;94690.78;;;3.66;52.96
1472;BME280;963;42.644;23.336;2023-03-13T06:43:49;94700.53;;;3.83;52.92
1472;BME280;963;42.644;23.336;2023-03-13T06:46:20;94691.09;;;3.96;51.70
1472;BME280;963;42.644;23.336;2023-03-13T06:48:46;94688.44;;;3.87;51.30
1472;BME280;963;42.644;23.336;2023-03-13T06:51:13;94697.47;;;3.81;51.17
1472;BME280;963;42.644;23.336;2023-03-13T06:53:39;94694.31;;;4.01;50.99
1472;BME280;963;42.644;23.336;2023-03-13T06:56:06;94685.66;;;4.15;50.45
1472;BME280;963;42.644;23.336;2023-03-13T06:58:31;94717.69;;;4.32;50.09
1472;BME280;963;42.644;23.336;2023-03-13T07:00:58;94700.34;;;4.11;51.35
1472;BME280;963;42.644;23.336;2023-03-13T07:03:24;94686.91;;;4.26;50.86
1472;BME280;963;42.644;23.336;2023-03-13T07:05:55;94687.59;;;4.57;50.28
1472;BME280;963;42.644;23.336;2023-03-13T07:08:21;94680.38;;;4.80;49.20
1472;BME280;963;42.644;23.336;2023-03-13T07:10:46;94690.22;;;4.83;48.88
1472;BME280;963;42.644;23.336;2023-03-13T07:13:15;94678.41;;;4.86;48.81
1472;BME280;963;42.644;23.336;2023-03-13T07:15:40;94697.56;;;4.98;48.35
1472;BME280;963;42.644;23.336;2023-03-13T07:18:05;94681.94;;;5.07;47.72
1472;BME280;963;42.644;23.336;2023-03-13T07:20:31;94690.38;;;5.04;48.50
1472;BME280;963;42.644;23.336;2023-03-13T07:22:56;94681.63;;;5.26;48.40
1472;BME280;963;42.644;23.336;2023-03-13T07:25:22;94676.56;;;5.29;48.08
1472;BME280;963;42.644;23.336;2023-03-13T07:27:49;94685.56;;;5.41;47.74
1472;BME280;963;42.644;23.336;2023-03-13T07:30:16;94685.38;;;5.54;47.70
1472;BME280;963;42.644;23.336;2023-03-13T07:32:41;94689.97;;;5.66;47.41
1472;BME280;963;42.644;23.336;2023-03-13T07:35:07;94671.09;;;5.69;46.67
1472;BME280;963;42.644;23.336;2023-03-13T07:37:32;94670.44;;;5.81;46.32
1472;BME280;963;42.644;23.336;2023-03-13T07:39:57;94687.06;;;5.68;47.45
1472;BME280;963;42.644;23.336;2023-03-13T07:42:23;94662.63;;;5.72;46.57
1472;BME280;963;42.644;23.336;2023-03-13T07:44:48;94674.09;;;5.88;45.71
1472;BME280;963;42.644;23.336;2023-03-13T07:47:14;94680.53;;;6.00;45.89
1472;BME280;963;42.644;23.336;2023-03-13T07:49:39;94680.81;;;6.07;46.13
1472;BME280;963;42.644;23.336;2023-03-13T07:52:08;94671.44;;;6.06;45.54
1472;BME280;963;42.644;23.336;2023-03-13T07:54:33;94686.50;;;5.36;47.09
1472;BME280;963;42.644;23.336;2023-03-13T07:57:00;94678.59;;;5.71;46.98
1472;BME280;963;42.644;23.336;2023-03-13T07:59:26;94681.00;;;5.29;47.48
1472;BME280;963;42.644;23.336;2023-03-13T08:01:52;94667.03;;;5.33;47.68
1472;BME280;963;42.644;23.336;2023-03-13T08:04:17;94661.38;;;5.78;46.58
1472;BME280;963;42.644;23.336;2023-03-13T08:06:43;94662.13;;;5.87;47.61
1472;BME280;963;42.644;23.336;2023-03-13T08:09:08;94663.44;;;6.11;47.30
1472;BME280;963;42.644;23.336;2023-03-13T08:11:34;94662.56;;;6.27;47.45
1472;BME280;963;42.644;23.336;2023-03-13T08:13:59;94663.44;;;6.11;47.32
1472;BME280;963;42.644;23.336;2023-03-13T08:16:29;94649.81;;;6.35;46.68
1472;BME280;963;42.644;23.336;2023-03-13T08:18:57;94656.72;;;6.31;47.44
1472;BME280;963;42.644;23.336;2023-03-13T08:21:28;94651.53;;;6.22;47.24
1472;BME280;963;42.644;23.336;2023-03-13T08:23:58;94670.81;;;5.62;48.10
1472;BME280;963;42.644;23.336;2023-03-13T08:26:29;94659.53;;;5.79;47.86
1472;BME280;963;42.644;23.336;2023-03-13T08:28:57;94655.03;;;6.05;47.26
1472;BME280;963;42.644;23.336;2023-03-13T08:31:25;94666.09;;;6.02;47.45
1472;BME280;963;42.644;23.336;2023-03-13T08:33:51;94668.53;;;6.07;47.75
1472;BME280;963;42.644;23.336;2023-03-13T08:36:28;94669.91;;;6.05;48.29
1472;BME280;963;42.644;23.336;2023-03-13T08:38:56;94670.66;;;6.43;47.27
1472;BME280;963;42.644;23.336;2023-03-13T08:41:24;94674.47;;;6.67;46.73
1472;BME280;963;42.644;23.336;2023-03-13T08:43:54;94667.59;;;6.41;47.34
1472;BME280;963;42.644;23.336;2023-03-13T08:46:20;94659.31;;;6.81;46.60
1472;BME280;963;42.644;23.336;2023-03-13T08:48:52;94668.56;;;6.99;46.67
1472;BME280;963;42.644;23.336;2023-03-13T08:51:20;94666.91;;;7.15;46.86
1472;BME280;963;42.644;23.336;2023-03-13T08:53:46;94661.28;;;7.38;45.34
1472;BME280;963;42.644;23.336;2023-03-13T08:56:13;94654.28;;;7.63;44.49
1472;BME280;963;42.644;23.336;2023-03-13T08:58:39;94657.84;;;7.13;46.01
1472;BME280;963;42.644;23.336;2023-03-13T09:01:10;94666.63;;;7.29;45.67
1472;BME280;963;42.644;23.336;2023-03-13T09:03:37;94663.09;;;7.58;44.61
1472;BME280;963;42.644;23.336;2023-03-13T09:06:03;94671.50;;;7.51;44.63
1472;BME280;963;42.644;23.336;2023-03-13T09:08:29;94651.78;;;7.78;44.20
1472;BME280;963;42.644;23.336;2023-03-13T09:11:00;94652.91;;;8.02;44.47
1472;BME280;963;42.644;23.336;2023-03-13T09:13:27;94650.72;;;8.04;44.87
1472;BME280;963;42.644;23.336;2023-03-13T09:15:57;94648.69;;;8.34;44.15
1472;BME280;963;42.644;23.336;2023-03-13T09:18:24;94648.53;;;8.30;43.09
1472;BME280;963;42.644;23.336;2023-03-13T09:20:50;94631.31;;;8.41;43.08
1472;BME280;963;42.644;23.336;2023-03-13T09:23:15;94634.75;;;8.70;43.43
1472;BME280;963;42.644;23.336;2023-03-13T09:25:41;94624.41;;;8.89;42.55
1472;BME280;963;42.644;23.336;2023-03-13T09:28:06;94620.94;;;8.85;42.55
1472;BME280;963;42.644;23.336;2023-03-13T09:30:31;94629.44;;;9.22;41.89
1472;BME280;963;42.644;23.336;2023-03-13T09:32:57;94631.81;;;9.27;42.11
1472;BME280;963;42.644;23.336;2023-03-13T09:35:22;94636.75;;;9.45;41.47
1472;BME280;963;42.644;23.336;2023-03-13T09:37:48;94638.88;;;9.55;40.73
1472;BME280;963;42.644;23.336;2023-03-13T09:40:14;94640.50;;;9.59;40.53
1472;BME280;963;42.644;23.336;2023-03-13T09:42:49;94649.16;;;9.60;40.92
1472;BME280;963;42.644;23.336;2023-03-13T09:47:57;94627.41;;;9.91;40.09
1472;BME280;963;42.644;23.336;2023-03-13T09:50:28;94629.75;;;9.96;40.02
1472;BME280;963;42.644;23.336;2023-03-13T09:53:03;94625.28;;;10.12;39.40
1472;BME280;963;42.644;23.336;2023-03-13T09:55:31;94625.69;;;9.83;40.28
1472;BME280;963;42.644;23.336;2023-03-13T09:58:05;94633.50;;;9.95;39.70
1472;BME280;963;42.644;23.336;2023-03-13T10:00:40;94613.38;;;10.18;39.76
1472;BME280;963;42.644;23.336;2023-03-13T10:03:13;94620.06;;;10.47;39.66
1472;BME280;963;42.644;23.336;2023-03-13T10:05:50;94621.06;;;10.78;38.84
1472;BME280;963;42.644;23.336;2023-03-13T10:08:21;94627.53;;;11.00;38.15
1472;BME280;963;42.644;23.336;2023-03-13T10:11:02;94608.25;;;10.76;38.50
1472;BME280;963;42.644;23.336;2023-03-13T10:13:40;94604.25;;;11.21;37.81
1472;BME280;963;42.644;23.336;2023-03-13T10:16:11;94594.44;;;11.41;37.55
1472;BME280;963;42.644;23.336;2023-03-13T10:18:43;94591.91;;;11.25;37.49
1472;BME280;963;42.644;23.336;2023-03-13T10:21:24;94592.59;;;11.22;37.79
1472;BME280;963;42.644;23.336;2023-03-13T10:24:11;94594.38;;;11.37;37.83
1472;BME280;963;42.644;23.336;2023-03-13T10:26:38;94585.91;;;11.70;37.47
1472;BME280;963;42.644;23.336;2023-03-13T10:29:25;94586.91;;;11.85;36.96
1472;BME280;963;42.644;23.336;2023-03-13T10:31:56;94553.72;;;12.07;36.80
1472;BME280;963;42.644;23.336;2023-03-13T10:34:24;94557.84;;;12.04;36.09
1472;BME280;963;42.644;23.336;2023-03-13T10:36:57;94560.31;;;11.71;36.47
1472;BME280;963;42.644;23.336;2023-03-13T10:39:25;94558.63;;;11.59;37.32
1472;BME280;963;42.644;23.336;2023-03-13T10:42:19;94565.56;;;11.90;37.78
1472;BME280;963;42.644;23.336;2023-03-13T10:44:45;94558.84;;;12.23;36.69
1472;BME280;963;42.644;23.336;2023-03-13T10:47:13;94575.28;;;12.12;36.37
1472;BME280;963;42.644;23.336;2023-03-13T10:49:47;94550.88;;;11.70;36.73
1472;BME280;963;42.644;23.336;2023-03-13T10:52:32;94557.38;;;12.25;36.84
1472;BME280;963;42.644;23.336;2023-03-13T10:55:04;94525.47;;;12.64;36.36
1472;BME280;963;42.644;23.336;2023-03-13T10:57:36;94548.66;;;12.81;36.02
1472;BME280;963;42.644;23.336;2023-03-13T11:00:26;94529.78;;;13.16;35.46
1472;BME280;963;42.644;23.336;2023-03-13T11:02:53;94528.75;;;13.21;34.98
1472;BME280;963;42.644;23.336;2023-03-13T11:07:51;94526.84;;;13.21;34.97
1472;BME280;963;42.644;23.336;2023-03-13T11:10:25;94512.84;;;13.17;35.30
1472;BME280;963;42.644;23.336;2023-03-13T11:12:53;94512.50;;;13.19;34.78
1472;BME280;963;42.644;23.336;2023-03-13T11:15:26;94506.72;;;13.50;34.41
1472;BME280;963;42.644;23.336;2023-03-13T11:17:58;94506.78;;;13.57;34.42
1472;BME280;963;42.644;23.336;2023-03-13T11:20:32;94497.53;;;13.81;33.66
1472;BME280;963;42.644;23.336;2023-03-13T11:25:42;94498.44;;;13.11;35.06
1472;BME280;963;42.644;23.336;2023-03-13T11:28:28;94502.78;;;12.59;35.68
1472;BME280;963;42.644;23.336;2023-03-13T11:31:20;94495.41;;;13.50;34.10
1472;BME280;963;42.644;23.336;2023-03-13T11:34:10;94488.63;;;13.11;34.48
1472;BME280;963;42.644;23.336;2023-03-13T11:36:58;94488.03;;;13.29;34.15
1472;BME280;963;42.644;23.336;2023-03-13T12:00:58;94447.38;;;15.00;33.03
1472;BME280;963;42.644;23.336;2023-03-13T12:09:32;94429.63;;;15.61;31.42
1472;BME280;963;42.644;23.336;2023-03-13T12:12:04;94437.03;;;16.30;31.54
1472;BME280;963;42.644;23.336;2023-03-13T12:20:01;94409.31;;;17.11;30.43
1472;BME280;963;42.644;23.336;2023-03-13T12:25:52;94404.06;;;16.97;30.03
1472;BME280;963;42.644;23.336;2023-03-13T12:28:42;94385.94;;;17.37;29.89
1472;BME280;963;42.644;23.336;2023-03-13T12:36:57;94388.66;;;18.08;29.22
1472;BME280;963;42.644;23.336;2023-03-13T12:44:41;94385.03;;;18.56;28.66
1472;BME280;963;42.644;23.336;2023-03-13T12:47:13;94387.25;;;18.61;28.59
1472;BME280;963;42.644;23.336;2023-03-13T12:49:44;94383.25;;;19.03;28.27
1472;BME280;963;42.644;23.336;2023-03-13T12:58:24;94385.34;;;20.25;26.99
1472;BME280;963;42.644;23.336;2023-03-13T13:00:52;94371.94;;;20.49;26.50
1472;BME280;963;42.644;23.336;2023-03-13T13:03:43;94401.28;;;20.69;26.57
1472;BME280;963;42.644;23.336;2023-03-13T13:06:15;94386.22;;;20.39;26.40
1472;BME280;963;42.644;23.336;2023-03-13T13:08:43;94388.44;;;20.44;26.58
1472;BME280;963;42.644;23.336;2023-03-13T13:13:59;94389.72;;;21.08;26.53
1472;BME280;963;42.644;23.336;2023-03-13T13:16:25;94390.25;;;21.35;25.77
1472;BME280;963;42.644;23.336;2023-03-13T13:18:51;94395.34;;;21.62;25.60
1472;BME280;963;42.644;23.336;2023-03-13T13:21:22;94382.47;;;21.86;25.25
1472;BME280;963;42.644;23.336;2023-03-13T13:23:50;94379.97;;;21.95;25.14
1472;BME280;963;42.644;23.336;2023-03-13T13:39:51;94360.59;;;22.45;24.73
1472;BME280;963;42.644;23.336;2023-03-13T13:45:17;94361.06;;;22.69;24.12
1472;BME280;963;42.644;23.336;2023-03-13T13:47:47;94360.09;;;22.76;23.89
1472;BME280;963;42.644;23.336;2023-03-13T13:52:43;94356.34;;;22.73;24.40
1472;BME280;963;42.644;23.336;2023-03-13T13:55:41;94355.03;;;22.65;23.76
1472;BME280;963;42.644;23.336;2023-03-13T13:58:16;94358.44;;;22.53;24.25
1472;BME280;963;42.644;23.336;2023-03-13T14:00:58;94361.03;;;22.44;24.38
1472;BME280;963;42.644;23.336;2023-03-13T14:03:26;94338.19;;;22.39;24.25
1472;BME280;963;42.644;23.336;2023-03-13T14:06:01;94352.47;;;22.74;24.33
1472;BME280;963;42.644;23.336;2023-03-13T14:08:30;94351.28;;;23.01;23.36
1472;BME280;963;42.644;23.336;2023-03-13T14:16:36;94351.22;;;22.25;24.17
1472;BME280;963;42.644;23.336;2023-03-13T14:19:02;94343.66;;;22.36;24.61
1472;BME280;963;42.644;23.336;2023-03-13T14:21:28;94340.44;;;22.66;23.84
1472;BME280;963;42.644;23.336;2023-03-13T14:23:53;94334.00;;;22.76;23.52
1472;BME280;963;42.644;23.336;2023-03-13T14:26:22;94344.97;;;22.82;24.05
1472;BME280;963;42.644;23.336;2023-03-13T14:29:02;94344.31;;;22.91;24.07
1472;BME280;963;42.644;23.336;2023-03-13T14:33:55;94340.19;;;23.24;23.68
1472;BME280;963;42.644;23.336;2023-03-13T14:36:20;94336.63;;;23.40;23.79
1472;BME280;963;42.644;23.336;2023-03-13T14:38:51;94349.72;;;23.38;23.26
1472;BME280;963;42.644;23.336;2023-03-13T14:41:36;94341.97;;;22.67;23.50
1472;BME280;963;42.644;23.336;2023-03-13T14:44:05;94340.44;;;21.99;24.06
1472;BME280;963;42.644;23.336;2023-03-13T14:46:35;94351.66;;;21.94;24.59
1472;BME280;963;42.644;23.336;2023-03-13T14:49:24;94353.78;;;21.41;24.78
1472;BME280;963;42.644;23.336;2023-03-13T14:52:26;94347.44;;;21.19;25.19
1472;BME280;963;42.644;23.336;2023-03-13T14:54:52;94337.72;;;21.09;25.22
1472;BME280;963;42.644;23.336;2023-03-13T14:57:20;94332.88;;;20.87;24.98
1472;BME280;963;42.644;23.336;2023-03-13T14:59:48;94343.81;;;20.77;25.39
1472;BME280;963;42.644;23.336;2023-03-13T15:02:28;94347.19;;;20.45;25.56
1472;BME280;963;42.644;23.336;2023-03-13T15:07:22;94352.28;;;19.99;26.12
1472;BME280;963;42.644;23.336;2023-03-13T15:09:49;94358.25;;;19.64;26.22
1472;BME280;963;42.644;23.336;2023-03-13T15:12:17;94350.69;;;19.16;27.07
1472;BME280;963;42.644;23.336;2023-03-13T15:14:46;94333.56;;;18.90;27.08
1472;BME280;963;42.644;23.336;2023-03-13T15:17:15;94346.00;;;18.73;27.47
1472;BME280;963;42.644;23.336;2023-03-13T15:19:41;94343.59;;;18.82;27.66